Eckles, Minnesota
Current Conditions -  °F | °C
As of 11:13 PM on Monday 20 Oct 2014 (Local Time) from KBJI Reporting Station
Clear Clear  
Wind Chill: 33°   Ceiling: Unl
Heat Index: 38°   Visibility: 10mi
Dew Point: 36°   Wind: 6mph
Humidity: 93%   Direction: 100°E
Pressure: 30.1"   Gusts: NA
Location:  47.5078°N, 95.0137°W
Report Text: KBJI 210413Z AUTO 10005KT 10SM CLR 03/02 A3010 RMK AO2 T00330023
Loading
Personal Weather Stations






























Interactive Weather Map
Tropical Storm Tracking
New forecast layout! Learn more

10-Day Weather Forecast

Advertisements
Track Severe Weather on mobile